Time;durP1;ratioP1;P1;durP2;ratioP2;P2;SDS_P1;SDS_P2;PMS_P1;PMS_P2;Temp;Humidity;BMP_temperature;BMP_pressure;BME280_temperature;BME280_humidity;BME280_pressure;Samples;Min_cycle;Max_cycle;Signal;HPM_P1;HPM_P2
2023/09/26 00:03:28;;;;;;;14.33;11.13;;;11.00;99.90;;;;;;8261837;28;20227;-67
2023/09/26 00:07:30;;;;;;;17.77;12.30;;;11.00;99.90;;;;;;8266068;28;20187;-68
2023/09/26 00:11:34;;;;;;;17.20;12.63;;;10.90;99.90;;;;;;8281663;28;20179;-67
2023/09/26 00:15:35;;;;;;;21.93;14.90;;;10.90;99.90;;;;;;8275091;28;20212;-67
2023/09/26 00:19:35;;;;;;;19.00;14.47;;;11.00;99.90;;;;;;8248287;28;20326;-65
2023/09/26 00:23:37;;;;;;;18.77;14.00;;;11.00;99.90;;;;;;8254314;28;20308;-66
2023/09/26 00:27:38;;;;;;;14.90;11.93;;;11.00;99.90;;;;;;8245769;28;20733;-64
2023/09/26 00:31:39;;;;;;;12.70;11.07;;;10.90;99.90;;;;;;8254193;28;20219;-65
2023/09/26 00:35:40;;;;;;;17.87;13.87;;;10.90;99.90;;;;;;8240603;28;20225;-65
2023/09/26 00:39:41;;;;;;;16.90;13.50;;;10.80;99.90;;;;;;8246282;28;20285;-65
2023/09/26 00:43:42;;;;;;;15.07;12.40;;;10.80;99.90;;;;;;8257478;28;20210;-65
2023/09/26 00:47:44;;;;;;;15.77;12.67;;;10.80;99.90;;;;;;8242111;28;20195;-65
2023/09/26 00:51:45;;;;;;;17.07;13.93;;;10.70;99.90;;;;;;8258203;28;20282;-63
2023/09/26 00:55:48;;;;;;;20.67;15.63;;;10.70;99.90;;;;;;8255459;28;20233;-66
2023/09/26 00:59:49;;;;;;;21.50;15.50;;;10.80;99.90;;;;;;8256025;28;20264;-65
2023/09/26 01:03:50;;;;;;;20.10;15.07;;;10.80;99.90;;;;;;8243416;28;20183;-66
2023/09/26 01:07:51;;;;;;;15.53;12.90;;;10.90;99.90;;;;;;8258403;28;20185;-66
2023/09/26 01:11:51;;;;;;;15.87;13.00;;;10.90;99.90;;;;;;8243045;28;20203;-63
2023/09/26 01:15:52;;;;;;;22.27;16.10;;;10.80;99.90;;;;;;8263060;28;20270;-66
2023/09/26 01:19:54;;;;;;;21.30;17.23;;;10.90;99.90;;;;;;8262141;28;20203;-65
2023/09/26 01:23:58;;;;;;;24.57;16.93;;;11.10;99.90;;;;;;8244823;28;20800;-66
2023/09/26 01:28:06;;;;;;;24.50;19.53;;;11.20;99.90;;;;;;8269086;28;20199;-67
2023/09/26 01:32:07;;;;;;;29.43;19.77;;;11.30;99.90;;;;;;8260629;28;20184;-67
2023/09/26 01:36:09;;;;;;;25.40;17.07;;;11.40;99.90;;;;;;8265637;28;20200;-67
2023/09/26 01:40:11;;;;;;;23.60;17.43;;;11.40;99.90;;;;;;8250635;28;20232;-66
2023/09/26 01:44:12;;;;;;;24.67;17.67;;;11.40;99.90;;;;;;8251900;28;20190;-67
2023/09/26 01:48:13;;;;;;;22.17;17.77;;;11.50;99.90;;;;;;8246014;28;20182;-64
2023/09/26 01:52:13;;;;;;;18.13;13.90;;;11.50;99.90;;;;;;8266084;28;20276;-65
2023/09/26 01:56:14;;;;;;;20.60;16.00;;;11.40;99.90;;;;;;8248991;28;20191;-65
2023/09/26 02:00:17;;;;;;;22.57;15.43;;;11.30;99.90;;;;;;8264367;28;20211;-64
2023/09/26 02:04:17;;;;;;;18.07;12.80;;;11.20;99.90;;;;;;8265671;28;20482;-66
2023/09/26 02:08:18;;;;;;;13.53;11.53;;;11.00;99.90;;;;;;8264195;28;20176;-65
2023/09/26 02:12:19;;;;;;;14.23;11.57;;;10.80;99.90;;;;;;8255324;28;20183;-64
2023/09/26 02:16:20;;;;;;;18.37;12.20;;;10.70;99.90;;;;;;8265614;28;20194;-64
2023/09/26 02:20:21;;;;;;;16.50;11.83;;;10.60;99.90;;;;;;8264415;28;20211;-64
2023/09/26 02:24:22;;;;;;;18.10;12.83;;;10.60;99.90;;;;;;8250246;28;20236;-65
2023/09/26 02:28:23;;;;;;;19.63;14.23;;;10.60;99.90;;;;;;8263298;28;20230;-65
2023/09/26 02:32:24;;;;;;;18.10;13.87;;;10.60;99.90;;;;;;8264488;28;20268;-66
2023/09/26 02:36:25;;;;;;;18.10;13.97;;;10.60;99.90;;;;;;8262710;28;20272;-65
2023/09/26 02:40:28;;;;;;;18.40;14.23;;;10.60;99.90;;;;;;8279916;28;20270;-68
2023/09/26 02:44:32;;;;;;;18.70;14.70;;;10.70;99.90;;;;;;8274740;28;20175;-69
2023/09/26 02:48:34;;;;;;;17.63;15.07;;;10.70;99.90;;;;;;8280625;28;20186;-69
2023/09/26 02:52:36;;;;;;;18.37;16.30;;;10.80;99.90;;;;;;8285851;28;20190;-68
2023/09/26 02:56:37;;;;;;;25.37;18.27;;;10.80;99.90;;;;;;8270785;28;20183;-68
2023/09/26 03:00:42;;;;;;;20.63;16.63;;;10.80;99.90;;;;;;8264573;28;20222;-68
2023/09/26 03:04:59;;;;;;;19.43;14.40;;;10.70;99.90;;;;;;8273716;28;20242;-69
2023/09/26 03:09:07;;;;;;;19.57;14.13;;;10.80;99.90;;;;;;8275716;28;20190;-69
2023/09/26 03:13:35;;;;;;;19.70;16.73;;;10.80;99.90;;;;;;8268187;28;20254;-69
2023/09/26 03:17:37;;;;;;;16.93;14.87;;;10.80;99.90;;;;;;8269494;28;20214;-68
2023/09/26 03:21:38;;;;;;;16.17;14.40;;;10.80;99.90;;;;;;8272784;28;20208;-69
2023/09/26 03:25:40;;;;;;;16.43;14.50;;;10.80;99.90;;;;;;8277289;28;20215;-68
2023/09/26 03:29:41;;;;;;;17.30;15.50;;;10.80;99.90;;;;;;8270877;28;20195;-69
2023/09/26 03:33:43;;;;;;;15.33;13.73;;;10.80;99.90;;;;;;8283918;28;20186;-69
2023/09/26 03:37:45;;;;;;;15.93;14.17;;;10.80;99.90;;;;;;8281189;28;20182;-69
2023/09/26 03:41:55;;;;;;;14.83;13.10;;;10.70;99.90;;;;;;8269891;28;20207;-69
2023/09/26 03:46:21;;;;;;;15.83;12.83;;;10.70;99.90;;;;;;8271955;28;20274;-68
2023/09/26 03:50:23;;;;;;;15.53;13.13;;;10.60;99.90;;;;;;8264127;28;20248;-65
2023/09/26 03:54:24;;;;;;;15.00;13.10;;;10.60;99.90;;;;;;8259767;28;20209;-65
2023/09/26 03:58:25;;;;;;;16.07;12.37;;;10.40;99.90;;;;;;8247804;28;20195;-65
2023/09/26 04:02:26;;;;;;;17.50;13.83;;;10.30;99.90;;;;;;8260723;28;20220;-65
2023/09/26 04:06:27;;;;;;;15.10;13.37;;;10.20;99.90;;;;;;8245905;28;20189;-65
2023/09/26 04:10:28;;;;;;;12.57;11.00;;;10.10;99.90;;;;;;8249941;28;20214;-65
2023/09/26 04:14:28;;;;;;;12.40;10.80;;;10.00;99.90;;;;;;8245376;28;20189;-64
2023/09/26 04:18:30;;;;;;;13.73;12.27;;;10.00;99.90;;;;;;8262319;28;20191;-65
2023/09/26 04:22:31;;;;;;;12.57;11.10;;;9.90;99.90;;;;;;8261318;28;20312;-64
2023/09/26 04:26:32;;;;;;;13.13;11.83;;;9.80;99.90;;;;;;8256740;28;20704;-66
2023/09/26 04:30:39;;;;;;;11.20;10.10;;;9.80;99.90;;;;;;8258983;28;20200;-64
2023/09/26 04:34:41;;;;;;;11.20;10.10;;;9.70;99.90;;;;;;8257472;28;20190;-65
2023/09/26 04:38:42;;;;;;;11.73;10.53;;;9.60;99.90;;;;;;8259069;28;20189;-65
2023/09/26 04:42:49;;;;;;;11.40;10.20;;;9.60;99.90;;;;;;8244315;28;20236;-65
2023/09/26 04:46:50;;;;;;;12.27;11.03;;;9.60;99.90;;;;;;8257730;28;20186;-66
2023/09/26 04:50:50;;;;;;;11.80;10.60;;;9.50;99.90;;;;;;8254095;28;20199;-64
2023/09/26 04:54:51;;;;;;;13.33;11.80;;;9.50;99.90;;;;;;8263909;28;20278;-66
2023/09/26 04:58:57;;;;;;;11.10;10.00;;;9.40;99.90;;;;;;8263573;28;20229;-68
2023/09/26 05:02:59;;;;;;;11.73;10.53;;;9.40;99.90;;;;;;8276689;28;20269;-68
2023/09/26 05:07:00;;;;;;;12.60;10.73;;;9.40;99.90;;;;;;8271086;28;20201;-65
2023/09/26 05:11:01;;;;;;;12.47;11.17;;;9.40;99.90;;;;;;8252481;28;20191;-67
2023/09/26 05:15:04;;;;;;;11.53;10.27;;;9.50;99.90;;;;;;8265486;28;20193;-70
2023/09/26 05:19:05;;;;;;;11.80;10.37;;;9.60;99.90;;;;;;8256535;28;20225;-70
2023/09/26 05:23:06;;;;;;;10.50;9.40;;;9.70;99.90;;;;;;8264921;28;20271;-70
2023/09/26 05:27:07;;;;;;;12.20;10.67;;;9.80;99.90;;;;;;8263068;28;20214;-70
2023/09/26 05:31:08;;;;;;;12.37;10.90;;;9.90;99.90;;;;;;8267855;28;20217;-71
2023/09/26 05:35:19;;;;;;;12.33;11.03;;;10.00;99.90;;;;;;8265679;28;20198;-70
2023/09/26 05:39:21;;;;;;;10.40;9.30;;;10.10;99.90;;;;;;8253260;28;20193;-71
2023/09/26 05:43:23;;;;;;;14.97;12.43;;;10.20;99.90;;;;;;8258712;28;20218;-71
2023/09/26 05:47:26;;;;;;;16.60;14.43;;;10.40;99.90;;;;;;8260037;28;20191;-70
2023/09/26 05:51:27;;;;;;;17.53;14.83;;;10.50;99.90;;;;;;8271612;28;20330;-68
2023/09/26 05:55:29;;;;;;;15.03;13.33;;;10.70;99.90;;;;;;8269914;28;20218;-70
2023/09/26 05:59:30;;;;;;;15.47;13.87;;;10.90;99.90;;;;;;8265811;28;20512;-70
2023/09/26 06:03:31;;;;;;;20.57;17.63;;;11.10;99.90;;;;;;8264683;28;20214;-70
2023/09/26 06:07:32;;;;;;;25.03;20.63;;;11.20;99.90;;;;;;8262149;28;20195;-70
2023/09/26 06:11:34;;;;;;;19.13;17.03;;;11.40;99.90;;;;;;8270302;28;20208;-70
2023/09/26 06:15:35;;;;;;;17.07;15.27;;;11.50;99.90;;;;;;8252239;28;20180;-70
2023/09/26 06:19:36;;;;;;;16.10;14.47;;;11.70;99.90;;;;;;8253174;28;20199;-70
2023/09/26 06:23:36;;;;;;;16.43;14.77;;;11.90;99.90;;;;;;8251677;28;20458;-69
2023/09/26 06:27:37;;;;;;;17.07;15.27;;;12.10;99.90;;;;;;8253830;28;20195;-70
2023/09/26 06:31:42;;;;;;;16.17;14.57;;;12.30;99.90;;;;;;8269862;28;20182;-69
2023/09/26 06:35:43;;;;;;;16.27;14.57;;;12.50;99.90;;;;;;8250380;28;20257;-69
2023/09/26 06:39:44;;;;;;;14.10;12.73;;;12.70;99.90;;;;;;8257950;28;20187;-70
2023/09/26 06:43:45;;;;;;;13.10;11.87;;;12.90;99.90;;;;;;8250171;28;20234;-69
2023/09/26 06:47:46;;;;;;;11.97;10.87;;;13.20;99.90;;;;;;8266173;28;20183;-69
2023/09/26 06:51:47;;;;;;;13.37;12.13;;;13.40;99.90;;;;;;8253011;28;20187;-69
2023/09/26 06:55:49;;;;;;;14.33;12.93;;;13.60;99.90;;;;;;8250679;28;20187;-69
2023/09/26 06:59:50;;;;;;;14.73;13.33;;;13.80;99.90;;;;;;8257784;28;20199;-69
2023/09/26 07:03:52;;;;;;;14.07;12.57;;;14.10;99.90;;;;;;8246297;28;20226;-69
2023/09/26 07:07:54;;;;;;;16.03;14.33;;;14.30;99.90;;;;;;8270477;28;20547;-68
2023/09/26 07:11:56;;;;;;;15.33;13.73;;;14.50;99.90;;;;;;8248480;28;20198;-67
2023/09/26 07:16:05;;;;;;;15.10;13.60;;;14.80;99.90;;;;;;8249987;28;20192;-69
2023/09/26 07:20:13;;;;;;;14.80;13.30;;;15.00;99.90;;;;;;8252862;28;20227;-66
2023/09/26 07:24:13;;;;;;;13.47;12.07;;;15.30;99.90;;;;;;8263000;28;20179;-67
2023/09/26 07:28:14;;;;;;;12.10;10.80;;;15.50;99.90;;;;;;8247200;28;20210;-68
2023/09/26 07:32:15;;;;;;;11.83;10.57;;;15.60;99.90;;;;;;8247667;28;20191;-65
2023/09/26 07:36:17;;;;;;;12.77;11.53;;;15.80;99.90;;;;;;8264077;28;20195;-65
2023/09/26 07:40:20;;;;;;;12.10;10.50;;;15.80;99.90;;;;;;8264338;28;20191;-68
2023/09/26 07:44:21;;;;;;;15.03;13.53;;;15.90;99.90;;;;;;8255232;28;20607;-69
2023/09/26 07:48:23;;;;;;;14.83;13.23;;;16.00;99.90;;;;;;8250501;28;20179;-69
2023/09/26 07:52:26;;;;;;;15.43;13.83;;;16.20;99.90;;;;;;8266881;28;20194;-67
2023/09/26 07:56:27;;;;;;;15.13;12.63;;;16.40;99.90;;;;;;8262822;28;20184;-69
2023/09/26 08:00:28;;;;;;;15.43;13.33;;;16.60;99.90;;;;;;8251954;28;20222;-69
2023/09/26 08:04:28;;;;;;;15.13;13.53;;;16.80;99.90;;;;;;8249883;28;20329;-67
2023/09/26 08:08:31;;;;;;;17.53;15.10;;;16.80;99.90;;;;;;8243285;28;20278;-71
2023/09/26 08:12:35;;;;;;;15.67;13.20;;;16.90;99.90;;;;;;8258508;28;20180;-68
2023/09/26 08:16:36;;;;;;;14.37;12.87;;;17.00;99.90;;;;;;8252438;28;20171;-70
2023/09/26 08:20:37;;;;;;;14.30;12.80;;;17.20;99.90;;;;;;8267176;28;20344;-69
2023/09/26 08:24:40;;;;;;;13.27;11.73;;;17.30;99.90;;;;;;8261676;28;20194;-70
2023/09/26 08:28:41;;;;;;;12.80;11.23;;;17.30;99.90;;;;;;8255765;28;20291;-69
2023/09/26 08:32:42;;;;;;;14.73;11.50;;;17.60;99.90;;;;;;8244763;28;20400;-70
2023/09/26 08:36:46;;;;;;;11.57;10.37;;;17.70;66.40;;;;;;8246946;28;20187;-68
2023/09/26 08:40:51;;;;;;;13.10;11.53;;;17.60;90.80;;;;;;8258613;28;20217;-69
2023/09/26 08:44:52;;;;;;;12.80;11.33;;;17.70;60.30;;;;;;8241730;28;20460;-67
2023/09/26 08:48:55;;;;;;;13.20;10.30;;;17.70;22.50;;;;;;8247703;28;20179;-69
2023/09/26 08:52:59;;;;;;;12.20;10.40;;;17.80;27.20;;;;;;8261582;28;20198;-67
2023/09/26 08:57:01;;;;;;;11.60;10.40;;;18.00;26.30;;;;;;8261656;28;20237;-69
2023/09/26 09:01:02;;;;;;;14.43;11.03;;;18.10;1.00;;;;;;8246676;28;20272;-70
2023/09/26 09:05:06;;;;;;;11.17;10.03;;;18.20;1.00;;;;;;8248480;28;20266;-71
2023/09/26 09:09:13;;;;;;;13.33;11.07;;;18.40;1.00;;;;;;8246408;28;20494;-71
2023/09/26 09:13:27;;;;;;;13.60;10.27;;;18.50;1.00;;;;;;8251133;28;20187;-70
2023/09/26 09:17:42;;;;;;;9.63;8.57;;;18.60;1.00;;;;;;8263550;28;20195;-68
2023/09/26 09:21:44;;;;;;;9.40;7.90;;;18.90;1.00;;;;;;8248120;28;20286;-66
2023/09/26 09:25:45;;;;;;;12.13;9.47;;;19.20;1.00;;;;;;8264087;28;20184;-68
2023/09/26 09:30:19;;;;;;;10.20;9.17;;;19.40;1.00;;;;;;8257875;28;20318;-65
2023/09/26 09:34:25;;;;;;;11.60;9.70;;;19.60;1.00;;;;;;8256043;28;20183;-68
2023/09/26 09:38:26;;;;;;;11.30;9.47;;;19.80;1.00;;;;;;8246224;28;20188;-72
2023/09/26 09:42:27;;;;;;;10.90;9.57;;;19.90;1.00;;;;;;8267605;28;20985;-68
2023/09/26 09:46:28;;;;;;;12.03;9.83;;;20.10;1.00;;;;;;8265359;28;20274;-70
2023/09/26 09:50:31;;;;;;;10.43;8.87;;;20.10;1.00;;;;;;8265661;28;20187;-70
2023/09/26 09:54:33;;;;;;;12.17;10.73;;;20.20;1.00;;;;;;8252933;28;20198;-68
2023/09/26 09:58:41;;;;;;;12.10;10.13;;;20.30;1.00;;;;;;8266948;28;20188;-66
2023/09/26 10:02:45;;;;;;;12.87;10.37;;;20.50;1.00;;;;;;8263457;28;20278;-64
2023/09/26 10:06:45;;;;;;;11.10;9.77;;;20.70;1.00;;;;;;8261436;28;20219;-70
2023/09/26 10:10:47;;;;;;;11.80;10.60;;;20.70;1.00;;;;;;8258906;28;20195;-69
2023/09/26 10:14:47;;;;;;;10.83;9.30;;;20.80;1.00;;;;;;8264367;28;20192;-66
2023/09/26 10:18:49;;;;;;;11.73;9.97;;;20.90;1.00;;;;;;8264337;28;20644;-69
2023/09/26 10:23:10;;;;;;;14.30;10.43;;;21.00;1.00;;;;;;8259957;28;20226;-64
2023/09/26 10:27:11;;;;;;;13.30;10.10;;;21.10;1.00;;;;;;8263501;28;20208;-68
2023/09/26 10:31:12;;;;;;;9.83;8.77;;;21.10;1.00;;;;;;8261399;28;20183;-70
2023/09/26 10:35:15;;;;;;;12.63;9.73;;;21.20;1.00;;;;;;8265621;28;20199;-70
2023/09/26 10:39:17;;;;;;;10.23;9.13;;;21.40;1.00;;;;;;8268583;28;20203;-69
2023/09/26 10:43:18;;;;;;;9.40;8.40;;;21.50;1.00;;;;;;8262669;28;20239;-70
2023/09/26 10:47:21;;;;;;;9.60;8.07;;;21.70;1.00;;;;;;8243464;28;20214;-68
2023/09/26 10:51:22;;;;;;;12.87;8.70;;;21.90;1.00;;;;;;8263239;28;20184;-71
2023/09/26 10:55:25;;;;;;;9.57;8.23;;;22.00;1.00;;;;;;8261512;28;20229;-74
2023/09/26 10:59:29;;;;;;;9.73;7.53;;;22.20;1.00;;;;;;8245462;28;20203;-66
2023/09/26 11:03:32;;;;;;;10.17;7.77;;;22.10;1.00;;;;;;8262242;28;20310;-72
2023/09/26 11:07:33;;;;;;;8.93;7.30;;;22.10;1.00;;;;;;8260308;28;20196;-68
2023/09/26 11:11:34;;;;;;;8.90;7.10;;;22.20;1.00;;;;;;8263131;28;20186;-69
2023/09/26 11:15:37;;;;;;;8.43;7.30;;;22.30;1.00;;;;;;8263099;28;20222;-71
2023/09/26 11:19:38;;;;;;;8.80;7.90;;;22.30;1.00;;;;;;8259295;28;20187;-67
2023/09/26 11:23:39;;;;;;;9.57;6.77;;;22.40;1.00;;;;;;8254953;28;20291;-73
2023/09/26 11:27:47;;;;;;;8.57;7.27;;;22.60;1.00;;;;;;8259439;28;20203;-71
2023/09/26 11:31:50;;;;;;;11.37;8.83;;;22.70;1.00;;;;;;8256392;28;20267;-67
2023/09/26 11:35:54;;;;;;;12.17;9.73;;;22.90;1.00;;;;;;8247981;28;20198;-66
2023/09/26 11:39:55;;;;;;;9.33;8.40;;;23.00;1.00;;;;;;8258038;28;20183;-68
2023/09/26 11:44:07;;;;;;;9.37;7.43;;;22.90;1.00;;;;;;8258184;28;20222;-71
2023/09/26 11:48:09;;;;;;;9.10;7.03;;;22.90;1.00;;;;;;8257821;28;20195;-71
2023/09/26 11:52:10;;;;;;;8.43;7.17;;;22.90;1.00;;;;;;8258407;28;20257;-72
2023/09/26 11:56:11;;;;;;;11.27;8.20;;;23.00;1.00;;;;;;8260679;28;20195;-72
2023/09/26 12:00:21;;;;;;;8.63;6.77;;;23.10;1.00;;;;;;8251107;28;20203;-70
2023/09/26 12:04:22;;;;;;;8.03;7.23;;;23.20;1.00;;;;;;8258651;28;20238;-70
2023/09/26 12:08:25;;;;;;;8.77;7.30;;;23.20;1.00;;;;;;8259928;28;20183;-71
2023/09/26 12:12:27;;;;;;;8.17;7.13;;;23.40;1.00;;;;;;8262996;28;20179;-72
2023/09/26 12:16:29;;;;;;;9.23;7.90;;;23.40;1.00;;;;;;8259268;28;20243;-72
2023/09/26 12:20:30;;;;;;;9.97;8.07;;;23.50;1.00;;;;;;8242537;28;20183;-71
2023/09/26 12:24:32;;;;;;;9.87;8.17;;;23.50;1.00;;;;;;8257786;28;20195;-70
2023/09/26 12:28:33;;;;;;;10.73;8.85;;;23.50;1.00;;;;;;8257119;28;20211;-67
2023/09/26 12:32:34;;;;;;;9.05;8.15;;;23.60;1.00;;;;;;8259748;28;20198;-72
2023/09/26 12:36:35;;;;;;;9.73;7.10;;;23.60;1.00;;;;;;8260609;28;20237;-71
2023/09/26 12:40:35;;;;;;;8.43;7.63;;;23.80;1.00;;;;;;8239893;28;20603;-70
2023/09/26 12:44:40;;;;;;;9.40;8.32;;;24.00;1.00;;;;;;8255844;28;20187;-68
2023/09/26 12:48:43;;;;;;;12.38;8.32;;;24.00;1.00;;;;;;8244132;28;20188;-71
2023/09/26 12:52:44;;;;;;;9.85;8.27;;;24.00;1.00;;;;;;8244171;28;20198;-69
2023/09/26 12:56:45;;;;;;;14.00;8.23;;;24.00;1.00;;;;;;8261507;28;20195;-67
2023/09/26 13:00:46;;;;;;;10.13;8.00;;;24.00;1.00;;;;;;8246606;28;20254;-71
2023/09/26 13:04:47;;;;;;;12.52;8.25;;;24.00;1.00;;;;;;8246366;28;20191;-65
2023/09/26 13:08:47;;;;;;;8.50;7.22;;;24.10;1.00;;;;;;8256891;28;20193;-70
2023/09/26 13:12:48;;;;;;;13.88;9.38;;;24.20;1.00;;;;;;8268050;28;20194;-69
2023/09/26 13:16:50;;;;;;;12.18;8.43;;;24.30;1.00;;;;;;8249238;28;20198;-68
2023/09/26 13:20:50;;;;;;;8.90;7.72;;;24.20;1.00;;;;;;8265569;28;20243;-70
2023/09/26 13:24:56;;;;;;;10.40;8.77;;;24.10;1.00;;;;;;8252758;28;20551;-70
2023/09/26 13:28:57;;;;;;;10.63;7.70;;;23.80;1.00;;;;;;8260725;28;20199;-70
2023/09/26 13:32:57;;;;;;;12.02;8.57;;;23.90;1.00;;;;;;8266542;28;20226;-69
2023/09/26 13:36:58;;;;;;;12.52;9.73;;;23.90;1.00;;;;;;8251138;28;20191;-65
2023/09/26 13:41:00;;;;;;;9.55;8.63;;;23.90;1.00;;;;;;8255462;28;20219;-69
2023/09/26 13:45:02;;;;;;;10.38;8.65;;;23.90;1.00;;;;;;8263928;28;20187;-66
2023/09/26 13:49:04;;;;;;;12.73;9.23;;;23.90;1.00;;;;;;8253468;28;20187;-67
2023/09/26 13:53:05;;;;;;;10.57;8.75;;;23.90;1.00;;;;;;8254762;28;20198;-71
2023/09/26 13:57:06;;;;;;;12.05;10.00;;;23.90;1.00;;;;;;8250849;28;20311;-71
2023/09/26 14:01:08;;;;;;;13.25;9.93;;;23.80;1.00;;;;;;8246062;28;20306;-70
2023/09/26 14:05:10;;;;;;;11.05;9.10;;;23.60;1.00;;;;;;8262365;28;20250;-71
2023/09/26 14:09:13;;;;;;;11.40;9.18;;;23.70;1.00;;;;;;8251703;28;20253;-71
2023/09/26 14:13:15;;;;;;;11.32;9.73;;;23.80;1.00;;;;;;8248975;28;20219;-71
2023/09/26 14:17:17;;;;;;;11.45;9.82;;;23.80;1.00;;;;;;8251551;28;20198;-69
2023/09/26 14:21:18;;;;;;;12.70;10.40;;;23.70;1.00;;;;;;8259484;28;20209;-70
2023/09/26 14:25:18;;;;;;;16.33;9.98;;;23.60;1.00;;;;;;8263148;28;20186;-70
2023/09/26 14:29:21;;;;;;;13.85;9.88;;;23.60;1.00;;;;;;8262188;28;20255;-67
2023/09/26 14:33:22;;;;;;;12.00;9.30;;;23.60;1.00;;;;;;8260396;28;20190;-67
2023/09/26 14:37:23;;;;;;;12.73;10.50;;;23.60;1.00;;;;;;8251017;28;20187;-71
2023/09/26 14:41:23;;;;;;;11.25;10.00;;;23.60;1.00;;;;;;8262513;28;20314;-66
2023/09/26 14:45:24;;;;;;;14.07;10.30;;;23.60;1.00;;;;;;8259075;28;20193;-72
2023/09/26 14:49:25;;;;;;;15.50;11.35;;;23.60;1.00;;;;;;8247024;28;20505;-70
2023/09/26 14:53:26;;;;;;;15.70;11.05;;;23.60;1.00;;;;;;8248376;28;20267;-71
2023/09/26 14:57:29;;;;;;;14.27;11.48;;;23.50;1.00;;;;;;8256449;28;20239;-71
2023/09/26 15:01:30;;;;;;;17.17;12.75;;;23.40;1.00;;;;;;8259941;28;20222;-69
2023/09/26 15:05:31;;;;;;;12.85;10.10;;;23.30;1.00;;;;;;8249371;28;20586;-71
2023/09/26 15:09:34;;;;;;;12.05;10.85;;;23.30;1.00;;;;;;8247317;28;20922;-66
2023/09/26 15:13:35;;;;;;;13.45;11.15;;;23.30;1.00;;;;;;8262144;28;20191;-71
2023/09/26 15:17:36;;;;;;;12.23;10.97;;;23.20;1.00;;;;;;8244296;28;20188;-70
2023/09/26 15:21:37;;;;;;;13.50;11.10;;;23.10;1.00;;;;;;8250224;28;20516;-70
2023/09/26 15:25:37;;;;;;;13.10;11.33;;;23.00;1.00;;;;;;8241879;28;20191;-69
2023/09/26 15:29:38;;;;;;;15.93;12.37;;;23.00;1.00;;;;;;8246720;28;20203;-69
2023/09/26 15:33:39;;;;;;;16.13;12.03;;;22.90;1.00;;;;;;8263345;28;20278;-72
2023/09/26 15:37:40;;;;;;;13.57;11.90;;;22.80;1.00;;;;;;8263621;28;20187;-69
2023/09/26 15:41:43;;;;;;;15.03;11.77;;;22.70;1.00;;;;;;8259752;28;20431;-68
2023/09/26 15:45:44;;;;;;;15.80;10.87;;;22.60;1.00;;;;;;8255555;28;20187;-71
2023/09/26 15:49:45;;;;;;;15.20;12.07;;;22.50;1.00;;;;;;8260582;28;20273;-71
2023/09/26 15:53:53;;;;;;;15.27;12.30;;;22.40;1.00;;;;;;8248294;28;20193;-68
2023/09/26 15:57:54;;;;;;;16.37;12.13;;;22.20;1.00;;;;;;8243457;28;20191;-69
2023/09/26 16:01:56;;;;;;;14.87;12.80;;;22.10;1.00;;;;;;8257122;28;20223;-69
2023/09/26 16:05:57;;;;;;;15.23;12.57;;;22.00;1.00;;;;;;8258858;28;20481;-69
2023/09/26 16:09:58;;;;;;;17.27;13.13;;;21.80;1.00;;;;;;8242899;28;20198;-68
2023/09/26 16:13:59;;;;;;;19.30;13.03;;;21.70;1.00;;;;;;8255727;28;20291;-68
2023/09/26 16:18:01;;;;;;;14.60;12.93;;;21.50;1.00;;;;;;8257338;28;20506;-66
2023/09/26 16:22:03;;;;;;;18.37;13.77;;;21.40;1.00;;;;;;8244632;28;20318;-70
2023/09/26 16:26:04;;;;;;;19.23;13.63;;;21.20;1.00;;;;;;8260656;28;20202;-68
2023/09/26 16:30:06;;;;;;;18.27;13.30;;;21.10;1.00;;;;;;8254307;28;20176;-70
2023/09/26 16:34:07;;;;;;;22.03;14.63;;;20.90;1.00;;;;;;8260973;28;20301;-71
2023/09/26 16:38:07;;;;;;;18.87;14.07;;;20.70;1.00;;;;;;8258527;28;20195;-68
2023/09/26 16:42:08;;;;;;;16.20;13.93;;;20.60;1.00;;;;;;8258382;28;20610;-67
2023/09/26 16:46:09;;;;;;;19.27;14.43;;;20.40;38.20;;;;;;8265930;28;20262;-71
2023/09/26 16:50:13;;;;;;;17.90;14.90;;;20.20;91.40;;;;;;8271349;28;20607;-72
2023/09/26 16:54:15;;;;;;;17.93;15.13;;;20.10;99.90;;;;;;8256717;28;20219;-71
2023/09/26 16:58:15;;;;;;;23.00;18.40;;;19.90;99.90;;;;;;8256534;28;20289;-66
2023/09/26 17:02:16;;;;;;;38.37;26.47;;;19.80;99.90;;;;;;8251676;28;20246;-70
2023/09/26 17:06:17;;;;;;;32.90;22.27;;;19.60;99.90;;;;;;8266880;28;20194;-66
2023/09/26 17:10:18;;;;;;;23.50;18.07;;;19.50;99.90;;;;;;8268134;28;20191;-65
2023/09/26 17:14:26;;;;;;;20.53;17.63;;;19.40;99.90;;;;;;8250366;28;20187;-64
2023/09/26 17:18:28;;;;;;;20.33;17.43;;;19.30;99.90;;;;;;8267552;28;20278;-63
2023/09/26 17:22:29;;;;;;;21.90;17.37;;;19.20;99.90;;;;;;8256315;28;20210;-67
2023/09/26 17:26:29;;;;;;;19.87;15.87;;;19.10;1.00;;;;;;8264803;28;20211;-67
2023/09/26 17:30:31;;;;;;;21.90;15.33;;;19.00;1.00;;;;;;8268475;28;20569;-66
2023/09/26 17:34:32;;;;;;;21.93;17.40;;;18.80;1.00;;;;;;8267169;28;20184;-65
2023/09/26 17:38:42;;;;;;;23.23;17.90;;;18.70;50.50;;;;;;8253639;28;20187;-68
2023/09/26 17:42:43;;;;;;;19.67;16.70;;;18.60;99.90;;;;;;8258245;28;20474;-69
2023/09/26 17:46:45;;;;;;;24.13;17.63;;;18.50;99.90;;;;;;8274462;28;20179;-69
2023/09/26 17:50:47;;;;;;;22.13;17.87;;;18.40;92.50;;;;;;8259365;28;20218;-69
2023/09/26 17:54:48;;;;;;;24.10;17.97;;;18.20;1.00;;;;;;8271399;28;20194;-69
2023/09/26 17:59:00;;;;;;;23.50;17.63;;;18.20;99.90;;;;;;8267049;28;20210;-68
2023/09/26 18:03:01;;;;;;;23.93;19.17;;;18.10;1.00;;;;;;8268744;28;20212;-68
2023/09/26 18:07:03;;;;;;;24.30;19.07;;;18.00;27.20;;;;;;8267069;28;20184;-68
2023/09/26 18:11:04;;;;;;;22.60;17.87;;;17.90;99.90;;;;;;8258904;28;20188;-69
2023/09/26 18:15:07;;;;;;;25.60;19.67;;;17.90;1.00;;;;;;8265712;28;20191;-68
2023/09/26 18:19:08;;;;;;;23.80;19.93;;;17.90;99.90;;;;;;8271998;28;20286;-68
2023/09/26 18:23:09;;;;;;;25.03;19.40;;;17.90;99.90;;;;;;8252757;28;20210;-68
2023/09/26 18:27:10;;;;;;;25.13;20.33;;;17.90;1.00;;;;;;8257694;28;20298;-68
2023/09/26 18:31:11;;;;;;;20.13;17.93;;;17.80;60.60;;;;;;8252570;28;20192;-68
2023/09/26 18:35:14;;;;;;;22.20;18.80;;;17.80;99.90;;;;;;8254463;28;20275;-68
2023/09/26 18:39:15;;;;;;;23.10;19.17;;;17.70;99.90;;;;;;8264579;28;20274;-68
2023/09/26 18:43:17;;;;;;;20.93;17.67;;;17.60;1.00;;;;;;8256138;28;20207;-68
2023/09/26 18:47:18;;;;;;;20.67;15.93;;;17.50;1.00;;;;;;8269389;28;20175;-66
2023/09/26 18:51:19;;;;;;;26.00;21.00;;;17.50;1.00;;;;;;8248770;28;20491;-66
2023/09/26 18:55:20;;;;;;;27.67;21.67;;;17.40;99.90;;;;;;8251286;28;20195;-67
2023/09/26 18:59:21;;;;;;;22.80;19.87;;;17.40;99.90;;;;;;8261333;28;20191;-67
2023/09/26 19:03:22;;;;;;;20.43;18.03;;;17.30;99.90;;;;;;8255520;28;20245;-69
2023/09/26 19:07:23;;;;;;;25.23;19.97;;;17.30;99.90;;;;;;8271121;28;20516;-69
2023/09/26 19:11:28;;;;;;;26.67;20.73;;;17.20;99.90;;;;;;8250381;28;20407;-68
2023/09/26 19:15:29;;;;;;;25.20;19.93;;;17.20;99.90;;;;;;8268601;28;20172;-68
2023/09/26 19:19:32;;;;;;;28.00;22.50;;;17.10;99.90;;;;;;8252449;28;20192;-68
2023/09/26 19:23:34;;;;;;;30.83;23.80;;;17.00;99.90;;;;;;8251016;28;20585;-68
2023/09/26 19:27:35;;;;;;;29.27;22.70;;;17.00;99.90;;;;;;8269982;28;20258;-69
2023/09/26 19:31:48;;;;;;;28.07;20.97;;;17.00;99.90;;;;;;8260127;28;20238;-69
2023/09/26 19:35:49;;;;;;;23.37;19.30;;;17.00;99.90;;;;;;8262729;28;20202;-68
2023/09/26 19:39:50;;;;;;;24.77;20.20;;;16.90;99.90;;;;;;8252897;28;20188;-69
2023/09/26 19:43:51;;;;;;;31.17;24.37;;;16.80;99.90;;;;;;8263264;28;20219;-69
2023/09/26 19:47:53;;;;;;;31.10;22.67;;;16.80;99.90;;;;;;8270418;28;20523;-69
2023/09/26 19:51:55;;;;;;;28.33;21.63;;;16.70;99.90;;;;;;8253782;28;20187;-69
2023/09/26 19:55:58;;;;;;;30.13;23.13;;;16.70;99.90;;;;;;8269104;28;20275;-69
2023/09/26 19:59:58;;;;;;;29.00;21.60;;;16.60;99.90;;;;;;8257521;28;20486;-69
2023/09/26 20:04:04;;;;;;;28.97;22.53;;;16.60;99.90;;;;;;8250399;28;20266;-69
2023/09/26 20:08:05;;;;;;;29.43;21.83;;;16.60;99.90;;;;;;8257914;28;20207;-64
2023/09/26 20:12:05;;;;;;;34.93;25.80;;;16.50;99.90;;;;;;8259185;28;20523;-67
2023/09/26 20:16:06;;;;;;;24.73;20.27;;;16.40;99.90;;;;;;8260388;28;20245;-66
2023/09/26 20:20:08;;;;;;;28.87;21.83;;;16.40;99.90;;;;;;8275687;28;20207;-69
2023/09/26 20:24:12;;;;;;;25.13;20.53;;;16.30;99.90;;;;;;8252974;28;20265;-69
2023/09/26 20:28:13;;;;;;;30.13;23.73;;;16.30;99.90;;;;;;8261891;28;20253;-70
2023/09/26 20:32:15;;;;;;;24.97;20.23;;;16.20;99.90;;;;;;8259848;28;20192;-68
2023/09/26 20:36:16;;;;;;;26.87;21.50;;;16.10;99.90;;;;;;8256778;28;20187;-70
2023/09/26 20:40:24;;;;;;;29.93;23.10;;;16.10;99.90;;;;;;8258298;28;20179;-69
2023/09/26 20:44:25;;;;;;;43.30;34.47;;;16.00;99.90;;;;;;8263163;28;20192;-69